메인 페이지
METAR-TAF:

METAR-TAF

공항 :

브리스틀 공항

브리스틀, 잉글랜드

위도: 51-23N, 경도: 002-43W, 고도: 189m

현재 날씨관측

예보는 17분 전, 17:20시(UTC)에 발표되었습니다.
서남서7kt
온도 19°C
습도 78%
기압 1021 hPa
시정 10km 이상

METAR: EGGD 231720Z AUTO 25007KT 9999 NCD 19/15 Q1021

시각: 18:37 (17:37 UTC)

예보

예보는 39분 전, 16:58시(UTC)에 발표되었습니다.
예보 대상 시간: 23일 18시부터 24일 18시까지 (UTC)
서남서5kt
시정 10km 이상
고도 1800ft 상공 구름 조금
확률 40%
23일 22시부터 24일 06시까지 (UTC)
시정: 8000m
고도 300ft 상공 구름 많음
확률 30% :
일시적
24일 06시부터 24일 10시까지 (UTC)
고도 900ft 상공 구름 많음
확률 30% :
일시적
24일 17시부터 24일 18시까지 (UTC)
시정: 6000m
고도 1100ft 상공 구름 많음
비,

TAF: EGGD 231658Z 2318/2418 24005KT 9999 FEW018 PROB40 2322/2406 8000 BKN003 PROB30 TEMPO 2406/2410 BKN009 PROB30 TEMPO 2417/2418 6000 RA BKN011

4,000개 이상의 공항 관측 자료 및 예보 (METAR 및 TAF 보고).

지도상에서 검색 가능한 기상관측소가 노란 점과 빨간 점으로 표시되어 있습니다.

기상관측소 명을 보려면 표시 위로 마우스를 이동하세요.

날씨 관측과 예보를 보려면 클릭하세요.

지도 변경 : 확대하려면 엑스 표시가 있는 녹색 버튼, 축소하려면 빼기 표시가 있는 녹색 버튼, 다음 페이지의 지도를 보려면 녹색 화살표를 클릭하세요.


METAR-TAF: